• Join FlightAware (Why Join?)
  • Login
  • US Flag 
11:01PM EDT


 

Airport Tracker/Info


-or-


 

Live Flight TrackerFlight Track Log ✈ EJA831 ✈ 11-Apr-2014 ✈ KAPF - KACY

Flight Track Log - Related Links

Times and Time Zones

All times are in EDT time to prevent confusion due to time zone crossing. See the EJA831 flight status page for this flight to view local times or setup timezone preferences in your user account.

Time Position Orientation Groundspeed Altitude Reporting Facility
EDT Latitude Longitude Course Direction KTS MPH feet Rate Location/Type
10:10AM 26.2025 -81.7050 North 223 257 4,000  Level Miami Center
10:11AM 26.2553 -81.6308 52° Northeast 261 300 7,400 2,700 Climbing Miami Center
10:12AM 26.3136 -81.6331 358° North 295 339 9,500 1,620 Climbing Miami Center
10:13AM 26.3944 -81.6456 352° North 290 334 10,700 720 Climbing Miami Center
10:14AM 26.4881 -81.6611 352° North 319 367 11,000 840 Climbing Miami Center
10:15AM 26.5772 -81.6761 351° North 326 375 12,400 1,800 Climbing Miami Center
10:16AM 26.8532 -81.7472 North  Level FlightAware Approximate
10:16AM 26.6728 -81.6917 352° North 331 381 14,600  Level Miami Center
10:17AM 26.7747 -81.7053 353° North 331 381 17,800 2,400 Climbing Miami Center
10:18AM 26.8533 -81.7225 349° North 331 381 19,400 1,560 Climbing Miami Center
10:19AM 26.9492 -81.7336 354° North 331 381 21,000 1,560 Climbing Miami Center
10:20AM 27.0486 -81.7539 350° North 344 396 22,600 1,560 Climbing Miami Center
10:21AM 27.1475 -81.7886 343° North 357 411 24,200 1,560 Climbing Miami Center
10:22AM 27.2444 -81.8206 344° North 357 411 25,800 1,560 Climbing Miami Center
10:23AM 27.3458 -81.8531 344° North 362 417 27,400 1,560 Climbing Miami Center
10:24AM 27.4425 -81.8875 342° North 362 417 29,000 1,740 Climbing Miami Center
10:25AM 27.5539 -81.9275 342° North 373 429 30,900 960 Climbing Miami Center
10:26AM 27.6569 -81.9650 342° North 384 442 31,000  Climbing Miami Center
10:27AM 27.7733 -81.9750 356° North 404 465 31,000  Level Miami Center
10:28AM 27.8753 -81.9256 23° Northeast 419 482 31,000  Level Miami Center
10:29AM 27.9808 -81.8339 37° Northeast 420 483 31,000  Level Miami Center
10:30AM 28.0842 -81.7419 38° Northeast 452 520 31,000 900 Level Miami Center
10:31AM 28.1831 -81.6544 38° Northeast 457 526 32,800 1,620 Climbing Miami Center
10:32AM 28.2819 -81.5667 38° Northeast 451 519 34,300 1,500 Climbing Miami Center
10:33AM 28.3722 -81.4856 38° Northeast 435 501 35,800 1,320 Climbing Miami Center
10:34AM 28.4794 -81.3908 38° Northeast 435 501 37,000 600 Climbing Miami Center
10:35AM 28.5917 -81.3433 20° North 425 489 37,000 60 Level Miami Center
10:39AM 29.0050 -81.3803 356° North 447 514 37,500 420 Climbing Jacksonville Center
10:40AM 29.1178 -81.3903 356° North 426 490 39,100 1,440 Climbing Jacksonville Center
10:41AM 29.2244 -81.4006 355° North 394 453 40,400 900 Climbing Jacksonville Center
10:42AM 29.3269 -81.4133 354° North 380 437 41,000 300 Climbing Jacksonville Center
10:43AM 29.4333 -81.4236 355° North 375 432 41,000  Level Jacksonville Center
10:44AM 29.5400 -81.4342 355° North 375 432 41,000  Level Jacksonville Center
10:45AM 29.6550 -81.4442 356° North 392 451 41,000  Level Jacksonville Center
10:46AM 29.7700 -81.4569 354° North 398 458 41,000  Level Jacksonville Center
10:47AM 29.8867 -81.4433 North 409 471 41,000  Level Jacksonville Center
10:48AM 30.0056 -81.4222 North 421 484 41,000  Level Jacksonville Center
10:49AM 30.1242 -81.3989 10° North 426 490 41,000  Level Jacksonville Center
10:50AM 30.2428 -81.3778 North 426 490 41,000  Level Jacksonville Center
10:51AM 30.3636 -81.3542 10° North 426 490 41,000  Level Jacksonville Center
10:52AM 30.4969 -81.3303 North 432 497 41,000  Level Jacksonville Center
10:53AM 30.6158 -81.3092 North 432 497 41,000  Level Jacksonville Center
10:54AM 30.7325 -81.2878 North 427 491 41,000  Level Jacksonville Center
10:55AM 30.8489 -81.2397 20° North 427 491 41,000  Level Jacksonville Center
10:56AM 30.9606 -81.1750 26° Northeast 444 511 41,000  Level Jacksonville Center
10:57AM 31.0744 -81.1072 27° Northeast 452 520 41,000  Level Jacksonville Center
10:58AM 31.1886 -81.0444 25° Northeast 446 513 41,000  Level Jacksonville Center
10:59AM 31.3022 -80.9792 26° Northeast 446 513 41,000  Level Jacksonville Center
11:00AM 31.3994 -80.9186 28° Northeast 440 506 41,000  Level Jacksonville Center
11:01AM 31.5236 -80.8478 26° Northeast 450 518 41,000  Level Jacksonville Center
11:02AM 31.6272 -80.7917 25° Northeast 450 518 41,000  Level Jacksonville Center
11:03AM 31.7511 -80.7181 27° Northeast 445 512 41,000  Level Jacksonville Center
11:04AM 31.8650 -80.6519 26° Northeast 445 512 41,000  Level Jacksonville Center
11:05AM 31.9703 -80.5881 27° Northeast 445 512 41,000  Level Jacksonville Center
11:06AM 32.0961 -80.5164 26° Northeast 450 518 41,000  Level Jacksonville Center
11:07AM 32.1975 -80.4547 27° Northeast 455 524 41,000  Level Jacksonville Center
11:08AM 32.3150 -80.3878 26° Northeast 455 524 41,000  Level Jacksonville Center
11:09AM 32.4306 -80.3156 28° Northeast 455 524 41,000  Level Jacksonville Center
11:10AM 32.5439 -80.2483 27° Northeast 461 531 41,000  Level Jacksonville Center
11:11AM 32.6614 -80.1783 27° Northeast 461 531 41,000  Level Jacksonville Center
11:12AM 32.7767 -80.1081 27° Northeast 461 531 41,000  Level Jacksonville Center
11:13AM 32.8914 -80.0006 38° Northeast 466 536 41,000  Level Jacksonville Center
11:14AM 32.9975 -79.9031 38° Northeast 472 543 41,000  Level Jacksonville Center
11:15AM 33.1017 -79.8031 39° Northeast 477 549 41,000  Level Jacksonville Center
11:16AM 33.2036 -79.7100 37° Northeast 477 549 41,000  Level Jacksonville Center
11:17AM 33.3056 -79.6144 38° Northeast 477 549 41,000  Level Jacksonville Center
11:18AM 33.4092 -79.5136 39° Northeast 477 549 41,000  Level Jacksonville Center
11:19AM 33.5111 -79.4175 38° Northeast 477 549 41,000  Level Jacksonville Center
11:20AM 33.6106 -79.3214 39° Northeast 472 543 41,000  Level Jacksonville Center
11:21AM 33.7122 -79.2250 38° Northeast 466 536 41,000  Level Jacksonville Center
11:22AM 33.8094 -79.1308 39° Northeast 450 518 41,000  Level Jacksonville Center
11:23AM 33.9069 -79.0367 39° Northeast 455 524 41,000 -960 Level Jacksonville Center
11:25AM 34.0917 -78.8617 38° Northeast 469 540 38,200 -1,800 Descending Washington Center
11:26AM 34.1839 -78.7725 39° Northeast 446 513 35,800 -1,680 Descending Washington Center
11:27AM 34.2781 -78.6808 39° Northeast 435 501 35,000 -420 Descending Washington Center
11:28AM 34.3744 -78.5836 40° Northeast 435 501 35,000  Level Washington Center
11:29AM 34.4706 -78.4889 39° Northeast 440 506 35,000  Level Washington Center
11:30AM 34.5733 -78.3817 41° Northeast 440 506 35,000  Level Washington Center
11:31AM 34.6586 -78.2961 40° Northeast 440 506 35,000  Level Washington Center
11:32AM 34.7547 -78.2008 39° Northeast 440 506 35,000  Level Washington Center
11:33AM 34.8553 -78.0875 43° Northeast 440 506 35,000  Level Washington Center
11:34AM 34.9406 -78.0014 40° Northeast 445 512 35,000  Level Washington Center
11:35AM 35.0364 -77.9031 40° Northeast 439 505 35,000 -540 Level Washington Center
11:36AM 35.1319 -77.8067 40° Northeast 439 505 34,000 -1,320 Descending Washington Center
11:37AM 35.2297 -77.7025 41° Northeast 445 512 32,400 -1,440 Descending Washington Center
11:38AM 35.3275 -77.6033 40° Northeast 445 512 31,200 -720 Descending Washington Center
11:39AM 35.4292 -77.5064 38° Northeast 451 519 31,000 -120 Descending Washington Center
11:40AM 35.5350 -77.4144 35° Northeast 456 525 31,000  Level Washington Center
11:41AM 35.6408 -77.3222 35° Northeast 462 532 31,000  Level Washington Center
11:42AM 35.7442 -77.2300 36° Northeast 457 526 31,000  Level Washington Center
11:43AM 35.8478 -77.1397 35° Northeast 457 526 31,000  Level Washington Center
11:44AM 35.9575 -77.0417 36° Northeast 452 520 31,000  Level Washington Center
11:45AM 36.0628 -76.9514 35° Northeast 452 520 31,000  Level Washington Center
11:46AM 36.1681 -76.8553 36° Northeast 457 526 31,000 -180 Level Washington Center
11:47AM 36.2714 -76.7617 36° Northeast 463 533 30,700 -960 Descending Washington Center
11:48AM 36.3767 -76.6678 36° Northeast 457 526 29,100 -1,440 Descending Washington Center
11:49AM 36.4794 -76.5761 36° Northeast 457 526 27,800 -1,080 Descending Washington Center
11:50AM 36.5847 -76.4792 36° Northeast 457 526 27,000 -420 Descending Washington Center
11:51AM 36.6833 -76.3869 37° Northeast 457 526 27,000  Level Washington Center
11:52AM 36.7861 -76.2972 35° Northeast 457 526 27,000  Level Washington Center
11:53AM 36.8825 -76.2072 37° Northeast 452 520 27,000  Level Washington Center
11:54AM 36.9850 -76.1508 24° Northeast 447 514 27,000  Level Washington Center
11:55AM 37.0981 -76.0892 24° Northeast 435 501 27,000  Level Washington Center
11:56AM 37.2089 -76.0325 22° Northeast 430 495 27,000 -660 Level Washington Center
11:57AM 37.3217 -75.9706 24° Northeast 430 495 25,800 -1,020 Descending Washington Center
11:58AM 37.4322 -75.9136 22° Northeast 430 495 25,000 -420 Descending Washington Center
11:59AM 37.5389 -75.8536 24° Northeast 430 495 25,000  Level Washington Center
12:00PM 37.6453 -75.7753 30° Northeast 425 489 25,000  Level Washington Center
12:01PM 37.7478 -75.6969 31° Northeast 430 495 25,000  Level Washington Center
12:02PM 37.8519 -75.6206 30° Northeast 430 495 25,000  Level Washington Center
12:03PM 37.9542 -75.5417 31° Northeast 430 495 25,000 -660 Level Washington Center
12:04PM 38.0583 -75.4625 31° Northeast 430 495 23,700 -1,920 Descending Washington Center
12:05PM 38.1731 -75.3911 26° Northeast 415 478 21,100 -2,340 Descending Washington Center
12:06PM 38.2667 -75.3247 29° Northeast 400 460 19,000 -2,040 Descending Washington Center
12:07PM 38.3625 -75.2686 25° Northeast 400 460 17,100 -2,040 Descending Washington Center
12:08PM 38.4603 -75.2072 26° Northeast 400 460 15,000 -2,040 Descending Washington Center
12:09PM 38.5517 -75.1511 26° Northeast 382 440 13,000 -1,920 Descending Washington Center
12:10PM 38.6433 -75.0947 26° Northeast 369 425 11,100 -1,140 Descending Washington Center
12:11PM 38.7328 -75.0381 26° Northeast 359 413 10,800 -840 Descending Washington Center
12:12PM 38.8158 -74.9842 27° Northeast 348 400 9,500 -1,200 Descending Washington Center
12:13PM 38.8928 -74.9356 26° Northeast 322 371 8,400 -900 Descending Washington Center
12:14PM 38.9653 -74.8867 28° Northeast 303 349 7,700 -1,080 Descending Washington Center
12:15PM 39.0381 -74.8406 26° Northeast 291 335 6,300 -1,380 Descending Washington Center
12:16PM 39.1086 -74.7944 27° Northeast 285 328 5,000 -1,320 Descending Washington Center
12:17PM 39.1750 -74.7564 24° Northeast 269 310 3,700 -1,080 Descending Washington Center
12:18PM 39.2372 -74.7181 26° Northeast 257 296 2,900 -360 Descending Washington Center
12:19PM 39.2975 -74.6797 26° Northeast 246 283 3,000 -600 Climbing Washington Center
12:20PM 39.3578 -74.6522 19° North 236 272 1,700 -720 Descending Washington Center
12:21PM 39.4181 -74.6325 14° North 230 265 1,600 -120 Descending Washington Center
12:22PM 39.4783 -74.6128 14° North 223 257 1,500 -120 Descending Washington Center